Terminal Aerodrome Forecast
Issued by NWS Mt. Holly, NJ

Home | Current Version | Previous Version | Text Only | Print | Product List | Glossary On
Versions: 1 2 3 4 5 6 7 8 9 10 11 12 13 14 15
000
FTUS41 KPHI 172337
TAFRDG
TAF
KRDG 172337Z 1800/1824 30005KT P6SM SCT080
     FM180500 VRB03KT P6SM SKC
      TEMPO 1807/1811 3SM BR
     FM181600 29010KT P6SM FEW050
     FM182000 33011G20KT P6SM SCT040=

USA.gov is the U.S. government's official web portal to all federal, state and local government web resources and services.